Time;durP1;ratioP1;P1;durP2;ratioP2;P2;SDS_P1;SDS_P2;PMS_P1;PMS_P2;Temp;Humidity;BMP_temperature;BMP_pressure;BME280_temperature;BME280_humidity;BME280_pressure;Samples;Min_cycle;Max_cycle;Signal;HPM_P1;HPM_P2
2022/07/01 00:01:25;;;;;;;6.00;5.40;;;20.70;99.90;;;;;;5000880;28;20236;-76
2022/07/01 00:03:50;;;;;;;5.55;4.85;;;20.60;99.90;;;;;;4984584;28;20186;-76
2022/07/01 00:06:20;;;;;;;7.05;5.00;;;20.60;99.90;;;;;;4984334;28;20202;-76
2022/07/01 00:08:46;;;;;;;5.88;5.38;;;20.60;99.90;;;;;;5016836;28;20167;-76
2022/07/01 00:11:11;;;;;;;5.57;5.05;;;20.60;99.90;;;;;;5016841;28;20194;-76
2022/07/01 00:13:37;;;;;;;6.30;5.70;;;20.60;99.90;;;;;;5034831;28;20175;-75
2022/07/01 00:16:03;;;;;;;5.65;5.13;;;20.60;99.90;;;;;;5000231;28;20178;-76
2022/07/01 00:18:29;;;;;;;5.90;5.30;;;20.50;99.90;;;;;;5000716;28;20193;-76
2022/07/01 00:20:55;;;;;;;6.35;5.50;;;20.40;99.90;;;;;;5016746;28;20175;-76
2022/07/01 00:23:21;;;;;;;6.70;5.82;;;20.40;99.90;;;;;;5016401;28;20186;-76
2022/07/01 00:25:46;;;;;;;6.85;6.00;;;20.40;99.90;;;;;;5000172;28;20273;-76
2022/07/01 00:28:12;;;;;;;7.97;6.38;;;20.30;99.90;;;;;;5016529;28;20668;-76
2022/07/01 00:30:38;;;;;;;7.22;6.53;;;20.20;99.90;;;;;;5000517;28;20182;-76
2022/07/01 00:33:04;;;;;;;7.35;6.70;;;20.00;99.90;;;;;;5016208;28;20196;-75
2022/07/01 00:35:30;;;;;;;7.80;6.95;;;20.10;99.90;;;;;;5016368;28;20167;-76
2022/07/01 00:37:56;;;;;;;9.25;7.75;;;20.00;99.90;;;;;;4983862;28;20182;-76
2022/07/01 00:40:23;;;;;;;8.93;8.02;;;20.00;99.90;;;;;;5000056;28;20265;-76
2022/07/01 00:42:48;;;;;;;8.35;7.65;;;20.00;99.90;;;;;;4999649;28;20194;-76
2022/07/01 00:45:14;;;;;;;9.52;8.73;;;19.80;99.90;;;;;;4983803;28;20186;-75
2022/07/01 00:47:41;;;;;;;10.93;8.38;;;19.80;99.90;;;;;;4983581;28;20206;-76
2022/07/01 00:50:09;;;;;;;358.48;43.08;;;19.70;99.90;;;;;;5016107;28;20167;-75
2022/07/01 00:52:35;;;;;;;6.85;5.82;;;19.70;99.90;;;;;;5015851;28;20206;-75
2022/07/01 00:55:06;;;;;;;8.68;7.80;;;19.70;99.90;;;;;;4999754;28;20236;-76
2022/07/01 00:57:33;;;;;;;9.20;8.00;;;19.60;99.90;;;;;;4999392;28;20178;-75
2022/07/01 01:00:01;;;;;;;10.13;8.53;;;19.50;99.90;;;;;;5016168;28;20184;-76
2022/07/01 01:02:26;;;;;;;9.20;8.43;;;19.30;99.90;;;;;;5015531;28;20202;-76
2022/07/01 01:04:52;;;;;;;9.33;8.50;;;19.40;99.90;;;;;;5015822;28;20187;-76
2022/07/01 01:07:18;;;;;;;9.32;8.43;;;19.40;99.90;;;;;;5033313;28;20738;-76
2022/07/01 01:09:44;;;;;;;9.60;8.70;;;19.40;99.90;;;;;;5015870;28;20269;-75
2022/07/01 01:12:11;;;;;;;9.73;8.83;;;19.20;99.90;;;;;;5015680;28;20236;-75
2022/07/01 01:14:47;;;;;;;9.50;8.02;;;19.30;99.90;;;;;;4999541;28;20174;-76
2022/07/01 01:17:13;;;;;;;8.70;7.90;;;19.30;99.90;;;;;;4999298;28;20205;-75
2022/07/01 01:19:40;;;;;;;8.43;7.63;;;19.30;99.90;;;;;;5015564;28;20441;-75
2022/07/01 01:22:07;;;;;;;7.17;6.57;;;19.20;99.90;;;;;;5015458;28;20201;-75
2022/07/01 01:24:32;;;;;;;7.63;6.93;;;19.10;99.90;;;;;;5015415;28;20607;-76
2022/07/01 01:26:58;;;;;;;7.47;6.87;;;18.70;99.90;;;;;;4998122;28;20211;-75
2022/07/01 01:29:24;;;;;;;7.03;6.43;;;18.40;99.90;;;;;;5015386;28;20205;-75
2022/07/01 01:31:49;;;;;;;7.03;6.43;;;18.40;99.90;;;;;;4998694;28;20673;-75
2022/07/01 01:34:15;;;;;;;6.40;5.80;;;18.40;99.90;;;;;;4999024;28;20178;-75
2022/07/01 01:36:42;;;;;;;7.13;6.53;;;18.40;99.90;;;;;;4982766;28;20178;-75
2022/07/01 01:39:16;;;;;;;6.63;6.03;;;18.40;99.90;;;;;;4998770;28;20182;-75
2022/07/01 01:41:42;;;;;;;6.90;6.30;;;18.40;99.90;;;;;;4985148;28;20217;-75
2022/07/01 01:44:08;;;;;;;6.43;5.83;;;18.30;99.90;;;;;;4982650;28;20329;-75
2022/07/01 01:46:34;;;;;;;6.73;5.87;;;18.30;99.90;;;;;;4998619;28;20285;-75
2022/07/01 01:49:00;;;;;;;6.00;5.50;;;18.20;99.90;;;;;;4998950;28;20272;-75
2022/07/01 01:51:27;;;;;;;5.90;5.40;;;18.20;99.90;;;;;;4998649;28;20210;-75
2022/07/01 01:53:52;;;;;;;6.00;5.40;;;18.10;99.90;;;;;;5014821;28;20200;-75
2022/07/01 01:56:18;;;;;;;6.27;5.70;;;18.20;99.90;;;;;;4998898;28;20178;-75
2022/07/01 01:58:44;;;;;;;6.23;5.73;;;18.10;99.90;;;;;;4998832;28;20236;-75
2022/07/01 02:01:11;;;;;;;5.93;5.43;;;18.10;99.90;;;;;;5015007;28;20244;-75
2022/07/01 02:03:39;;;;;;;5.57;5.07;;;17.90;99.90;;;;;;5014568;28;20265;-75
2022/07/01 02:06:06;;;;;;;5.83;5.10;;;18.00;99.90;;;;;;4982275;28;20264;-75
2022/07/01 02:08:31;;;;;;;6.10;5.50;;;17.90;99.90;;;;;;5014660;28;20201;-75
2022/07/01 02:10:58;;;;;;;5.17;4.77;;;18.00;99.90;;;;;;5014834;28;20198;-75
2022/07/01 02:13:24;;;;;;;5.60;5.13;;;17.90;99.90;;;;;;4998275;28;20194;-75
2022/07/01 02:15:49;;;;;;;5.47;4.97;;;17.90;99.90;;;;;;4998410;28;20206;-75
2022/07/01 02:18:15;;;;;;;5.20;4.80;;;17.90;99.90;;;;;;4998273;28;20174;-75
2022/07/01 02:20:42;;;;;;;5.43;4.90;;;17.90;99.90;;;;;;4998201;28;20670;-77
2022/07/01 02:23:08;;;;;;;5.03;4.63;;;17.80;99.90;;;;;;4998241;28;20286;-77
2022/07/01 02:25:34;;;;;;;5.70;5.20;;;17.80;99.90;;;;;;5014745;28;20653;-77
2022/07/01 02:28:00;;;;;;;5.57;5.00;;;17.70;99.90;;;;;;5014902;28;20248;-77
2022/07/01 02:30:27;;;;;;;5.50;5.00;;;17.70;99.90;;;;;;4982598;28;20175;-77
2022/07/01 02:32:52;;;;;;;5.70;5.20;;;17.70;99.90;;;;;;5014349;28;20198;-77
2022/07/01 02:35:18;;;;;;;5.73;5.07;;;17.70;99.90;;;;;;4998363;28;20717;-77
2022/07/01 02:37:44;;;;;;;5.13;4.73;;;17.60;99.90;;;;;;4982170;28;20178;-77
2022/07/01 02:40:10;;;;;;;5.50;5.00;;;17.60;99.90;;;;;;4988998;28;20178;-78
2022/07/01 02:42:36;;;;;;;5.87;5.37;;;17.70;99.90;;;;;;5004849;28;20208;-77
2022/07/01 02:45:04;;;;;;;5.30;4.80;;;17.60;99.90;;;;;;5021707;28;20683;-77
2022/07/01 02:47:33;;;;;;;5.80;5.30;;;17.70;99.90;;;;;;5021345;28;20546;-77
2022/07/01 02:49:59;;;;;;;5.90;5.40;;;17.70;99.90;;;;;;5022329;28;20170;-77
2022/07/01 02:52:24;;;;;;;5.70;5.20;;;17.60;99.90;;;;;;4988898;28;20685;-77
2022/07/01 02:54:50;;;;;;;5.97;5.37;;;17.50;99.90;;;;;;5005478;28;20178;-77
2022/07/01 02:57:15;;;;;;;5.87;5.27;;;17.30;99.90;;;;;;5005591;28;20280;-77
2022/07/01 02:59:41;;;;;;;5.70;5.10;;;17.30;99.90;;;;;;4988762;28;20665;-77
2022/07/01 03:02:07;;;;;;;5.93;5.43;;;17.30;99.90;;;;;;4988800;28;20194;-77
2022/07/01 03:04:33;;;;;;;5.90;5.40;;;17.40;99.90;;;;;;4988184;28;20232;-76
2022/07/01 03:06:59;;;;;;;6.80;6.10;;;17.40;99.90;;;;;;4988297;28;20213;-75
2022/07/01 03:09:24;;;;;;;6.33;5.77;;;17.40;99.90;;;;;;5020975;28;20185;-75
2022/07/01 03:11:50;;;;;;;9.03;6.00;;;17.30;99.90;;;;;;5020548;28;20293;-75
2022/07/01 03:14:15;;;;;;;6.97;6.20;;;17.30;99.90;;;;;;5004321;28;20182;-75
2022/07/01 03:16:41;;;;;;;6.90;6.23;;;17.30;99.90;;;;;;5004338;28;20194;-75
2022/07/01 03:19:07;;;;;;;6.33;5.73;;;17.20;99.90;;;;;;4988031;28;20277;-75
2022/07/01 03:21:33;;;;;;;6.33;5.73;;;17.10;99.90;;;;;;4988028;28;20205;-75
2022/07/01 03:23:58;;;;;;;5.80;5.30;;;17.10;99.90;;;;;;5004164;28;20184;-75
2022/07/01 03:26:24;;;;;;;6.03;5.50;;;17.10;99.90;;;;;;4988153;28;20210;-76
2022/07/01 03:28:49;;;;;;;5.90;5.40;;;17.20;99.90;;;;;;4988998;28;20261;-76
2022/07/01 03:31:15;;;;;;;5.67;5.17;;;17.20;99.90;;;;;;5004883;28;20198;-76
2022/07/01 03:33:41;;;;;;;4.93;4.53;;;17.30;99.90;;;;;;5003987;28;20179;-75
2022/07/01 03:36:06;;;;;;;5.10;4.70;;;17.40;99.90;;;;;;5004304;28;20178;-76
2022/07/01 03:38:32;;;;;;;4.77;4.37;;;17.20;99.90;;;;;;5004293;28;20178;-75
2022/07/01 03:40:58;;;;;;;4.87;4.33;;;17.20;99.90;;;;;;5004365;28;20174;-76
2022/07/01 03:43:24;;;;;;;5.50;4.97;;;17.10;99.90;;;;;;5003848;28;20273;-75
2022/07/01 03:45:49;;;;;;;4.67;4.27;;;17.20;99.90;;;;;;4987674;28;20171;-75
2022/07/01 03:48:16;;;;;;;5.47;5.00;;;17.10;99.90;;;;;;5003886;28;20210;-75
2022/07/01 03:50:41;;;;;;;5.63;5.10;;;17.10;99.90;;;;;;4985682;28;20182;-75
2022/07/01 03:55:51;;;;;;;5.13;4.47;;;17.10;99.90;;;;;;5006509;28;20197;-76
2022/07/01 03:58:17;;;;;;;4.00;3.60;;;17.10;99.90;;;;;;4984684;28;20183;-76
2022/07/01 04:00:42;;;;;;;4.13;3.73;;;17.00;99.90;;;;;;5017130;28;20261;-76
2022/07/01 04:03:08;;;;;;;4.30;3.90;;;17.00;99.90;;;;;;4984319;28;20289;-76
2022/07/01 04:05:35;;;;;;;3.90;3.60;;;17.00;99.90;;;;;;5017114;28;20527;-76
2022/07/01 04:08:06;;;;;;;4.00;3.60;;;17.00;99.90;;;;;;4984520;28;20213;-76
2022/07/01 04:10:33;;;;;;;3.50;3.20;;;17.00;99.90;;;;;;5000730;28;20186;-76
2022/07/01 04:13:00;;;;;;;3.87;3.50;;;17.00;99.90;;;;;;5016750;28;20638;-76
2022/07/01 04:15:26;;;;;;;3.87;3.57;;;17.00;99.90;;;;;;5000525;28;20277;-76
2022/07/01 04:17:51;;;;;;;3.83;3.53;;;16.90;99.90;;;;;;5000596;28;20265;-76
2022/07/01 04:20:17;;;;;;;3.80;3.50;;;16.80;99.90;;;;;;5000622;28;20178;-76
2022/07/01 04:22:43;;;;;;;3.63;3.33;;;16.80;99.90;;;;;;5000350;28;20209;-76
2022/07/01 04:25:08;;;;;;;4.07;3.67;;;17.00;99.90;;;;;;4984172;28;20619;-76
2022/07/01 04:27:34;;;;;;;3.30;3.00;;;17.00;99.90;;;;;;5000116;28;20697;-76
2022/07/01 04:30:02;;;;;;;3.50;3.20;;;17.00;99.90;;;;;;4983916;28;20273;-76
2022/07/01 04:32:28;;;;;;;3.77;3.23;;;16.90;99.90;;;;;;5000214;28;20202;-76
2022/07/01 04:34:54;;;;;;;3.37;3.07;;;17.00;99.90;;;;;;5000428;28;20237;-76
2022/07/01 04:37:19;;;;;;;3.63;3.33;;;16.90;99.90;;;;;;4983964;28;20556;-76
2022/07/01 04:39:45;;;;;;;3.50;3.20;;;16.90;99.90;;;;;;5000224;28;20183;-76
2022/07/01 04:42:11;;;;;;;3.40;3.10;;;17.00;99.90;;;;;;4999807;28;20571;-76
2022/07/01 04:44:37;;;;;;;3.07;2.77;;;16.90;99.90;;;;;;4999821;28;20186;-76
2022/07/01 04:47:04;;;;;;;3.43;3.13;;;16.80;99.90;;;;;;4983563;28;20213;-76
2022/07/01 04:49:30;;;;;;;3.37;3.07;;;16.70;99.90;;;;;;5016292;28;20171;-76
2022/07/01 04:51:57;;;;;;;3.30;3.00;;;16.70;99.90;;;;;;4999733;28;20255;-76
2022/07/01 04:54:23;;;;;;;3.23;3.00;;;16.70;99.90;;;;;;4999900;28;20179;-78
2022/07/01 04:56:49;;;;;;;3.20;2.90;;;16.60;99.90;;;;;;5016105;28;20592;-78
2022/07/01 04:59:15;;;;;;;3.13;2.83;;;16.50;99.90;;;;;;5000025;28;20273;-76
2022/07/01 05:01:42;;;;;;;2.90;2.70;;;16.50;99.90;;;;;;4998509;28;20198;-76
2022/07/01 05:04:08;;;;;;;2.87;2.67;;;16.60;99.90;;;;;;4999514;28;20182;-76
2022/07/01 05:06:34;;;;;;;3.27;2.70;;;16.60;99.90;;;;;;4999623;28;20209;-77
2022/07/01 05:09:00;;;;;;;2.67;2.47;;;16.60;99.90;;;;;;4999624;28;20185;-76
2022/07/01 05:11:25;;;;;;;3.93;2.40;;;16.70;99.90;;;;;;4983183;28;20190;-76
2022/07/01 05:13:51;;;;;;;2.67;2.47;;;16.70;99.90;;;;;;4999190;28;20273;-76
2022/07/01 05:16:17;;;;;;;2.70;2.50;;;16.80;99.90;;;;;;5015881;28;20170;-77
2022/07/01 05:24:11;;;;;;;2.60;2.40;;;16.70;99.90;;;;;;5018566;28;20194;-76
2022/07/01 05:26:38;;;;;;;2.40;2.20;;;16.60;99.90;;;;;;4999274;28;20210;-76
2022/07/01 05:29:03;;;;;;;2.40;2.20;;;16.60;99.90;;;;;;4999234;28;20671;-77
2022/07/01 05:31:29;;;;;;;2.37;2.17;;;16.50;99.90;;;;;;5015376;28;20191;-77
2022/07/01 05:33:54;;;;;;;2.23;2.03;;;16.40;99.90;;;;;;4982737;28;20174;-76
2022/07/01 05:36:20;;;;;;;2.60;2.30;;;16.50;99.90;;;;;;4982936;28;20269;-76
2022/07/01 05:38:46;;;;;;;2.33;2.13;;;16.30;99.90;;;;;;4998872;28;20289;-76
2022/07/01 05:41:12;;;;;;;2.10;1.90;;;16.40;99.90;;;;;;4998886;28;20285;-76
2022/07/01 05:43:38;;;;;;;2.53;2.20;;;16.30;99.90;;;;;;4998871;28;20274;-76
2022/07/01 05:46:04;;;;;;;2.63;2.43;;;16.20;99.90;;;;;;4998899;28;20200;-76
2022/07/01 05:48:29;;;;;;;4.00;2.60;;;16.30;99.90;;;;;;4999102;28;20198;-76
2022/07/01 05:50:55;;;;;;;3.43;2.70;;;16.30;99.90;;;;;;4998732;28;20181;-76
2022/07/01 05:53:20;;;;;;;3.73;3.10;;;16.20;99.90;;;;;;4982269;28;20174;-74
2022/07/01 05:55:46;;;;;;;3.93;2.83;;;16.10;99.90;;;;;;4982819;28;20189;-75
2022/07/01 05:58:13;;;;;;;5.33;3.57;;;16.10;99.90;;;;;;4998793;28;20620;-75
2022/07/01 06:00:41;;;;;;;3.90;3.50;;;16.10;99.90;;;;;;5015071;28;20257;-75
2022/07/01 06:03:10;;;;;;;4.17;3.73;;;16.00;99.90;;;;;;5014644;28;20218;-75
2022/07/01 06:05:36;;;;;;;4.23;3.63;;;16.10;99.90;;;;;;5014797;28;20179;-75
2022/07/01 06:08:03;;;;;;;4.27;3.87;;;16.20;99.90;;;;;;4998256;28;20212;-75
2022/07/01 06:10:29;;;;;;;4.70;4.20;;;16.30;99.90;;;;;;4982493;28;20185;-76
2022/07/01 06:12:54;;;;;;;5.43;4.63;;;16.30;99.90;;;;;;5014101;28;20191;-76
2022/07/01 06:15:20;;;;;;;4.67;4.27;;;16.40;99.90;;;;;;4998408;28;20174;-75
2022/07/01 06:17:46;;;;;;;4.37;3.97;;;16.50;99.90;;;;;;4998437;28;20182;-76
2022/07/01 06:20:12;;;;;;;5.03;4.30;;;16.60;99.90;;;;;;5014608;28;20175;-75
2022/07/01 06:22:37;;;;;;;4.93;4.43;;;16.60;99.90;;;;;;4981742;28;20208;-75
2022/07/01 06:25:03;;;;;;;4.50;4.10;;;16.80;99.90;;;;;;4982261;28;20657;-76
2022/07/01 06:27:29;;;;;;;5.83;4.10;;;16.70;99.90;;;;;;5014668;28;20289;-76
2022/07/01 06:29:55;;;;;;;4.63;4.00;;;16.70;99.90;;;;;;5014612;28;20264;-75
2022/07/01 06:32:20;;;;;;;5.40;4.00;;;16.60;99.90;;;;;;4981895;28;20196;-75
2022/07/01 06:34:47;;;;;;;4.30;3.87;;;16.70;99.90;;;;;;4981931;28;20175;-75
2022/07/01 06:37:13;;;;;;;5.03;4.27;;;16.70;99.90;;;;;;5014380;28;20178;-77
2022/07/01 06:39:39;;;;;;;5.37;4.43;;;16.80;99.90;;;;;;5014557;28;20180;-76
2022/07/01 06:42:05;;;;;;;5.43;4.70;;;16.80;99.90;;;;;;5014153;28;20198;-77
2022/07/01 06:44:31;;;;;;;5.30;4.40;;;16.80;99.90;;;;;;4981986;28;20190;-77
2022/07/01 06:46:56;;;;;;;4.97;4.30;;;16.90;99.90;;;;;;4998057;28;20206;-76
2022/07/01 06:49:22;;;;;;;4.30;3.90;;;16.80;99.90;;;;;;4981716;28;20525;-75
2022/07/01 06:51:47;;;;;;;4.93;4.43;;;16.70;99.90;;;;;;4981509;28;20272;-76
2022/07/01 06:54:13;;;;;;;4.83;4.33;;;16.70;99.90;;;;;;4981784;28;20182;-77
2022/07/01 06:56:39;;;;;;;4.23;3.80;;;16.70;99.90;;;;;;4998181;28;20182;-76
2022/07/01 06:59:05;;;;;;;4.80;4.30;;;16.70;99.90;;;;;;4998080;28;20228;-77
2022/07/01 07:01:30;;;;;;;4.70;4.23;;;16.60;99.90;;;;;;4997838;28;20256;-77
2022/07/01 07:03:56;;;;;;;5.50;4.50;;;16.70;99.90;;;;;;4997741;28;20186;-76
2022/07/01 07:06:22;;;;;;;4.83;4.20;;;16.60;99.90;;;;;;4997708;28;20631;-76
2022/07/01 07:08:47;;;;;;;4.83;4.37;;;16.60;99.90;;;;;;4982040;28;20589;-76
2022/07/01 07:11:14;;;;;;;4.47;4.07;;;16.60;99.90;;;;;;4997768;28;20810;-76
2022/07/01 07:13:41;;;;;;;4.83;4.20;;;16.70;99.90;;;;;;4998082;28;20171;-76
2022/07/01 07:16:06;;;;;;;4.47;4.07;;;16.80;99.90;;;;;;4997880;28;20175;-76
2022/07/01 07:18:32;;;;;;;4.70;4.30;;;16.90;99.90;;;;;;5014206;28;20179;-77
2022/07/01 07:20:58;;;;;;;4.40;4.00;;;17.10;99.90;;;;;;4981481;28;20179;-77
2022/07/01 07:23:23;;;;;;;4.53;4.13;;;17.20;99.90;;;;;;4981740;28;20178;-77
2022/07/01 07:25:49;;;;;;;4.27;3.83;;;17.20;99.90;;;;;;4982891;28;20229;-78
2022/07/01 07:28:14;;;;;;;4.37;3.97;;;17.30;99.90;;;;;;4985328;28;20230;-77
2022/07/01 07:30:40;;;;;;;3.87;3.50;;;17.30;99.90;;;;;;4985913;28;20258;-77
2022/07/01 07:33:06;;;;;;;4.00;3.70;;;17.20;99.90;;;;;;4984299;28;20233;-78
2022/07/01 07:35:31;;;;;;;4.07;3.40;;;17.10;99.90;;;;;;4984754;28;20178;-78
2022/07/01 07:37:57;;;;;;;3.90;3.60;;;17.20;99.90;;;;;;4985752;28;20206;-78
2022/07/01 07:40:23;;;;;;;3.60;3.30;;;17.30;99.90;;;;;;5001551;28;20214;-78
2022/07/01 07:42:48;;;;;;;3.80;3.40;;;17.50;99.90;;;;;;5017317;28;20202;-77
2022/07/01 07:45:15;;;;;;;3.50;3.20;;;17.60;99.90;;;;;;5001211;28;20183;-77
2022/07/01 07:47:49;;;;;;;3.57;3.27;;;17.50;99.90;;;;;;5018111;28;20296;-77
2022/07/01 07:50:15;;;;;;;3.67;3.37;;;17.40;99.90;;;;;;5001886;28;20175;-77
2022/07/01 07:52:41;;;;;;;4.00;3.60;;;17.40;99.90;;;;;;5017522;28;20205;-77
2022/07/01 07:55:09;;;;;;;3.37;3.07;;;17.40;99.90;;;;;;5001756;28;20189;-77
2022/07/01 07:57:39;;;;;;;4.63;3.20;;;17.40;99.90;;;;;;5002815;28;20213;-77
2022/07/01 08:00:07;;;;;;;2.90;2.70;;;17.40;99.90;;;;;;5003590;28;20193;-77
2022/07/01 08:02:32;;;;;;;3.43;3.13;;;17.40;99.90;;;;;;5003048;28;20202;-77
2022/07/01 08:04:58;;;;;;;2.97;2.77;;;17.40;99.90;;;;;;4985315;28;20195;-77
2022/07/01 08:07:24;;;;;;;3.33;3.03;;;17.50;99.90;;;;;;5001474;28;20202;-77
2022/07/01 08:09:49;;;;;;;3.90;2.83;;;17.50;99.90;;;;;;4985204;28;20660;-77
2022/07/01 08:12:16;;;;;;;3.10;2.80;;;17.60;99.90;;;;;;4984613;28;20550;-77
2022/07/01 08:14:42;;;;;;;3.00;2.80;;;17.40;99.90;;;;;;5001166;28;20185;-77
2022/07/01 08:17:08;;;;;;;2.90;2.60;;;17.40;99.90;;;;;;5001311;28;20206;-77
2022/07/01 08:19:34;;;;;;;2.80;2.60;;;17.50;99.90;;;;;;5000892;28;20236;-75
2022/07/01 08:22:00;;;;;;;3.00;2.80;;;17.50;99.90;;;;;;5000945;28;20618;-78
2022/07/01 08:24:25;;;;;;;2.93;2.73;;;17.50;99.90;;;;;;5017313;28;20174;-78
2022/07/01 08:26:51;;;;;;;3.37;2.70;;;17.40;99.90;;;;;;4984739;28;20298;-77
2022/07/01 08:29:17;;;;;;;3.27;2.50;;;17.40;99.90;;;;;;5000638;28;20272;-77
2022/07/01 08:31:42;;;;;;;3.43;2.33;;;17.30;99.90;;;;;;5016799;28;20195;-78
2022/07/01 08:34:09;;;;;;;2.63;2.43;;;17.40;99.90;;;;;;4984731;28;20178;-76
2022/07/01 08:36:35;;;;;;;2.57;2.37;;;17.40;99.90;;;;;;5000459;28;20644;-76
2022/07/01 08:39:02;;;;;;;2.40;2.20;;;17.50;99.90;;;;;;5017129;28;20261;-78
2022/07/01 08:41:28;;;;;;;2.10;2.00;;;17.50;99.90;;;;;;5000489;28;20707;-76
2022/07/01 08:43:53;;;;;;;2.00;1.80;;;17.40;99.90;;;;;;5000336;28;20186;-76
2022/07/01 08:46:21;;;;;;;2.10;1.87;;;17.40;99.90;;;;;;5000741;28;20611;-75
2022/07/01 08:48:46;;;;;;;2.40;2.00;;;17.40;99.90;;;;;;5000824;28;20186;-75
2022/07/01 08:51:12;;;;;;;1.70;1.60;;;17.20;99.90;;;;;;5000297;28;20257;-75
2022/07/01 08:53:38;;;;;;;2.70;1.80;;;17.20;99.90;;;;;;5016821;28;20179;-75
2022/07/01 08:58:49;;;;;;;2.60;1.80;;;17.20;99.90;;;;;;5019493;28;20212;-76
2022/07/01 09:01:17;;;;;;;1.80;1.70;;;17.20;99.90;;;;;;4983592;28;20194;-76
2022/07/01 09:03:45;;;;;;;1.67;1.57;;;17.20;99.90;;;;;;5016297;28;20174;-76
2022/07/01 09:06:14;;;;;;;2.63;1.67;;;17.20;99.90;;;;;;4984225;28;20220;-76
2022/07/01 09:08:40;;;;;;;2.93;1.60;;;17.30;99.90;;;;;;5016282;28;20227;-77
2022/07/01 09:11:12;;;;;;;1.87;1.70;;;17.40;99.90;;;;;;5015636;28;20185;-76
2022/07/01 09:13:38;;;;;;;1.80;1.70;;;17.40;99.90;;;;;;4999306;28;20261;-76
2022/07/01 09:16:14;;;;;;;2.07;1.87;;;17.40;99.90;;;;;;5015732;28;20650;-76
2022/07/01 09:18:40;;;;;;;2.33;1.87;;;17.30;99.90;;;;;;4999476;28;20178;-76
2022/07/01 09:21:13;;;;;;;2.47;1.90;;;17.30;99.90;;;;;;4999239;28;20598;-74
2022/07/01 09:23:39;;;;;;;2.03;1.93;;;17.20;99.90;;;;;;4998966;28;20285;-77
2022/07/01 09:26:05;;;;;;;2.17;1.97;;;17.20;99.90;;;;;;5015375;28;20170;-76
2022/07/01 09:28:31;;;;;;;2.40;2.20;;;17.20;99.90;;;;;;4999745;28;20189;-78
2022/07/01 09:30:58;;;;;;;4.80;2.30;;;17.20;99.90;;;;;;5015459;28;20181;-77
2022/07/01 09:33:26;;;;;;;2.40;2.20;;;17.10;99.90;;;;;;5015784;28;20186;-78
2022/07/01 09:35:52;;;;;;;2.40;2.20;;;17.10;99.90;;;;;;4999121;28;20178;-77
2022/07/01 09:38:23;;;;;;;2.73;2.30;;;16.90;99.90;;;;;;4996394;28;20193;-76
2022/07/01 09:40:49;;;;;;;2.57;2.00;;;16.90;99.90;;;;;;5010815;28;20178;-78
2022/07/01 09:43:20;;;;;;;2.17;1.97;;;16.80;99.90;;;;;;5035162;28;20177;-75
2022/07/01 09:45:54;;;;;;;2.30;2.10;;;16.70;99.90;;;;;;4979552;28;20189;-78
2022/07/01 09:48:20;;;;;;;2.13;1.93;;;16.70;99.90;;;;;;4979387;28;20214;-77
2022/07/01 09:50:46;;;;;;;2.63;2.20;;;16.60;99.90;;;;;;4996015;28;20552;-78
2022/07/01 09:53:15;;;;;;;3.63;2.20;;;16.60;99.90;;;;;;5081501;23;20221;-77
2022/07/01 09:55:41;;;;;;;2.43;2.23;;;16.50;99.90;;;;;;5037883;28;20895;-77
2022/07/01 09:58:06;;;;;;;4.87;2.67;;;16.50;99.90;;;;;;5055130;28;20530;-78
2022/07/01 10:00:36;;;;;;;2.83;2.50;;;16.50;99.90;;;;;;5054830;28;20176;-78
2022/07/01 10:03:02;;;;;;;2.80;2.53;;;16.40;99.90;;;;;;5054681;28;20679;-78
2022/07/01 10:05:31;;;;;;;2.77;2.40;;;16.50;99.90;;;;;;5054444;28;20227;-77
2022/07/01 10:08:08;;;;;;;3.20;2.90;;;16.50;99.90;;;;;;5038993;28;20733;-76
2022/07/01 10:10:52;;;;;;;2.97;2.57;;;16.30;99.90;;;;;;5054689;28;20207;-77
2022/07/01 10:13:23;;;;;;;3.53;2.40;;;16.40;99.90;;;;;;5072298;28;20264;-78
2022/07/01 10:15:49;;;;;;;4.03;2.57;;;16.50;99.90;;;;;;5038499;28;20272;-76
2022/07/01 10:18:23;;;;;;;2.30;2.10;;;16.50;99.90;;;;;;5054832;28;20716;-78
2022/07/01 10:20:50;;;;;;;2.93;2.20;;;16.60;99.90;;;;;;5054669;28;20177;-76
2022/07/01 10:23:20;;;;;;;3.20;2.10;;;16.70;99.90;;;;;;5054075;28;20193;-77
2022/07/01 10:26:03;;;;;;;2.27;1.77;;;16.80;99.90;;;;;;5037759;28;20619;-76
2022/07/01 10:28:42;;;;;;;1.93;1.73;;;16.80;99.90;;;;;;5036785;28;20200;-77
2022/07/01 10:31:15;;;;;;;1.90;1.70;;;16.70;99.90;;;;;;5054381;28;20205;-76
2022/07/01 10:33:57;;;;;;;2.33;1.93;;;16.70;99.90;;;;;;5070980;28;20230;-76
2022/07/01 10:36:31;;;;;;;2.40;2.17;;;16.70;99.90;;;;;;5037565;28;20172;-77
2022/07/01 10:42:02;;;;;;;3.30;2.03;;;16.80;99.90;;;;;;5072105;28;20193;-75
2022/07/01 10:44:28;;;;;;;2.30;2.10;;;16.90;99.90;;;;;;5065331;28;20187;-75
2022/07/01 10:47:04;;;;;;;2.10;1.90;;;17.10;99.90;;;;;;5054149;28;20205;-75
2022/07/01 10:49:36;;;;;;;1.93;1.67;;;17.20;99.90;;;;;;5037418;28;20226;-77
2022/07/01 10:52:09;;;;;;;1.97;1.70;;;17.10;99.90;;;;;;5053558;28;20767;-76
2022/07/01 10:57:19;;;;;;;2.27;1.87;;;17.00;99.90;;;;;;5072082;28;20192;-76
2022/07/01 11:00:00;;;;;;;4.73;2.30;;;17.00;99.90;;;;;;5055296;28;20246;-77
2022/07/01 11:02:32;;;;;;;2.43;2.23;;;17.10;99.90;;;;;;5057937;28;20200;-77
2022/07/01 11:05:07;;;;;;;2.23;1.97;;;17.20;99.90;;;;;;5058102;28;20271;-76
2022/07/01 11:07:35;;;;;;;3.03;1.80;;;17.30;99.90;;;;;;5057755;28;20203;-77
2022/07/01 11:10:03;;;;;;;2.47;1.90;;;17.40;99.90;;;;;;5057619;28;20566;-76
2022/07/01 11:12:30;;;;;;;2.10;1.57;;;17.40;99.90;;;;;;5075763;28;20599;-77
2022/07/01 11:14:58;;;;;;;2.77;1.90;;;17.40;99.90;;;;;;5057567;28;20218;-76
2022/07/01 11:17:25;;;;;;;2.67;1.83;;;17.40;99.90;;;;;;5041458;28;20185;-77
2022/07/01 11:19:54;;;;;;;2.03;1.90;;;17.30;99.90;;;;;;5057822;28;20187;-76
2022/07/01 11:22:25;;;;;;;2.20;1.90;;;17.20;99.90;;;;;;5057337;28;20201;-76
2022/07/01 11:24:52;;;;;;;2.30;1.83;;;17.30;99.90;;;;;;5041019;28;20189;-76
2022/07/01 11:27:18;;;;;;;2.10;1.90;;;17.40;99.90;;;;;;5040817;28;20209;-76
2022/07/01 11:29:44;;;;;;;2.47;2.10;;;17.30;99.90;;;;;;5057365;28;20523;-76
2022/07/01 11:32:09;;;;;;;3.23;2.43;;;17.30;99.90;;;;;;5040748;28;20571;-76
2022/07/01 11:34:36;;;;;;;2.50;2.10;;;17.20;99.90;;;;;;5057339;28;20173;-76
2022/07/01 11:40:08;;;;;;;3.60;1.97;;;17.20;99.90;;;;;;5075433;28;20183;-76
2022/07/01 11:42:34;;;;;;;2.03;1.83;;;17.10;99.90;;;;;;5040419;28;20579;-76
2022/07/01 11:45:00;;;;;;;2.17;1.97;;;17.10;99.90;;;;;;5075049;28;20185;-76
2022/07/01 11:47:26;;;;;;;2.20;1.60;;;17.10;99.90;;;;;;5072511;28;20279;-77
2022/07/01 11:49:52;;;;;;;2.70;2.23;;;17.30;99.90;;;;;;5063313;28;20172;-77
2022/07/01 11:52:20;;;;;;;2.37;2.07;;;17.40;99.90;;;;;;5058629;28;20215;-77
2022/07/01 11:54:59;;;;;;;1.90;1.80;;;17.40;99.90;;;;;;5059680;28;20176;-76
2022/07/01 11:57:28;;;;;;;2.20;2.00;;;17.40;99.90;;;;;;5077445;28;20229;-76
2022/07/01 11:59:55;;;;;;;1.70;1.60;;;17.40;99.90;;;;;;5056703;28;20352;-77
2022/07/01 12:02:24;;;;;;;2.00;1.80;;;17.50;99.90;;;;;;5042484;28;20205;-77
2022/07/01 12:04:51;;;;;;;1.90;1.70;;;17.50;99.90;;;;;;5040257;28;20173;-78
2022/07/01 12:07:21;;;;;;;2.67;1.80;;;17.30;99.90;;;;;;5074519;28;20197;-78
2022/07/01 12:09:47;;;;;;;1.57;1.47;;;17.40;99.90;;;;;;5040846;28;20196;-79
2022/07/01 12:12:26;;;;;;;1.90;1.60;;;17.50;99.90;;;;;;5039298;28;20197;-77
2022/07/01 12:14:54;;;;;;;1.83;1.40;;;17.40;99.90;;;;;;5057243;28;20189;-78
2022/07/01 12:17:20;;;;;;;1.30;1.20;;;17.40;99.90;;;;;;5024353;28;20189;-77
2022/07/01 12:19:47;;;;;;;1.97;1.30;;;17.40;99.90;;;;;;5040207;28;20181;-76
2022/07/01 12:22:15;;;;;;;1.97;1.30;;;17.40;99.90;;;;;;5039540;28;20201;-76
2022/07/01 12:24:42;;;;;;;1.67;1.40;;;17.30;99.90;;;;;;5039859;28;20181;-76
2022/07/01 12:27:08;;;;;;;2.23;1.40;;;17.20;99.90;;;;;;5074152;28;20201;-76
2022/07/01 12:29:43;;;;;;;1.30;1.20;;;17.10;99.90;;;;;;5039944;28;20226;-77
2022/07/01 12:32:11;;;;;;;4.20;1.30;;;17.20;99.90;;;;;;5074101;28;20191;-77
2022/07/01 12:34:41;;;;;;;1.40;1.30;;;17.10;99.90;;;;;;5056125;28;20188;-76
2022/07/01 12:37:13;;;;;;;2.67;1.30;;;17.10;99.90;;;;;;5056224;28;20177;-76
2022/07/01 12:39:51;;;;;;;1.37;1.27;;;17.20;99.90;;;;;;5055998;28;20181;-77
2022/07/01 12:42:22;;;;;;;1.17;1.07;;;17.40;99.90;;;;;;5039517;28;20284;-77
2022/07/01 12:44:48;;;;;;;1.33;1.23;;;17.60;99.90;;;;;;5039939;28;20242;-77
2022/07/01 12:47:27;;;;;;;1.40;1.30;;;17.90;99.90;;;;;;5039452;28;20204;-77
2022/07/01 12:50:15;;;;;;;1.60;1.30;;;18.00;99.90;;;;;;5073922;28;20169;-76
2022/07/01 12:53:00;;;;;;;1.40;1.30;;;17.90;99.90;;;;;;5055643;28;20220;-77
2022/07/01 12:55:28;;;;;;;1.47;1.30;;;17.90;99.90;;;;;;5055825;28;20173;-76
2022/07/01 12:57:55;;;;;;;2.57;1.40;;;17.90;99.90;;;;;;5055846;28;20265;-77
2022/07/01 13:00:23;;;;;;;1.40;1.30;;;17.90;99.90;;;;;;5055491;28;20583;-77
2022/07/01 13:02:57;;;;;;;1.53;1.43;;;17.90;99.90;;;;;;5055579;28;20201;-77
2022/07/01 13:05:23;;;;;;;1.40;1.30;;;17.90;99.90;;;;;;5073655;28;20176;-76